Deming Municipal Airport
KDMN : now visible

Airfield :











YOU CAN JOIN US ON...

 
LOGIN :

Register | Disclaimer

   EN    FR    IT 

 









Legend :    VFR   Marginal VFR   IFR   Intensive IFR   Very Intensive IFR
Visi :
Ceiling :
>= 8 km
>= 3000ft
5 to 8 km
1000 to 3000 ft
1500m to 5 km
500 to 1000 ft
800 to 1500m
200 to 500 ft
< 800m
< 200 ft
Symbols :   Thunderstorms  Fog  Heavy snow  Heavy precipitations  Wind > 20 kt







- Airport Elevation : 4314 ft


KDMN - Deming Municipal

CURRENT METAR :
  • 211553Z AUTO 25015KT 10SM CLR 21/M03 A3004 RMK AO2 SLP103 T02111033 $

EXPIRED METARs :
  • 211453Z AUTO 21006KT 10SM CLR 18/M03 A3003 RMK AO2 SLP103 T01831028 51012 $
  • 211353Z AUTO 00000KT 10SM CLR 13/M03 A3004 RMK AO2 SLP108 T01331028 $

TAF KDMN
Valid from the 21 at 12:00 until the 22 at 12:00 UTC


211138Z 2112/2212 29007KT P6SM SKC
FM211800 25018G28KT P6SM SKC
FM220300 26010KT P6SM SCT250
KZAB FIR / North America



MET'MAP, your aeronautical weather chart ! - Copyright ORBIFLY December 2007 - Disclaimer

ORBIFLY MET'MAP TEAM :

Programming & Development : Alexandra Zaïnal
Concept & Development : Baudouin d'Aumeries
Co-Development & Prog : Marc-Olivier Méhu
Technical & hardware support : Manuel Goepfert

Contact : metmap@orbifly.com




SOURCES & CREDITS :

   NOAA       Earth
Advisory